Time,TemperatureF,DewpointF,PressureIn,WindDirection,WindDirectionDegrees,WindSpeedMPH,WindSpeedGustMPH,Humidity,HourlyPrecipIn,Conditions,Clouds,dailyrainin,SoftwareType,DateUTC
2013-11-19 00:00:00,36.6,28.1,30.17,West,276,5.0,5.0,71,0.00,,,0.00,Wunderground v.1.13,2013-11-19 05:00:00,
2013-11-19 00:05:00,36.6,28.1,30.17,WNW,294,5.0,5.0,71,0.00,,,0.00,Wunderground v.1.13,2013-11-19 05:05:00,
2013-11-19 00:10:00,36.7,28.2,30.17,WNW,284,5.0,5.0,71,0.00,,,0.00,Wunderground v.1.13,2013-11-19 05:10:00,
2013-11-19 00:15:00,36.8,28.3,30.17,WNW,286,5.0,5.0,71,0.00,,,0.00,Wunderground v.1.13,2013-11-19 05:15:00,
2013-11-19 00:20:00,36.8,28.3,30.17,West,280,4.0,4.0,71,0.00,,,0.00,Wunderground v.1.13,2013-11-19 05:20:00,
2013-11-19 00:30:00,36.9,28.4,30.17,West,277,4.0,5.0,71,0.00,,,0.00,Wunderground v.1.13,2013-11-19 05:30:00,
2013-11-19 00:40:00,37.0,28.5,30.17,WNW,285,3.0,4.0,71,0.00,,,0.00,Wunderground v.1.13,2013-11-19 05:40:00,
2013-11-19 00:50:00,37.1,28.9,30.18,WNW,292,3.0,3.0,72,0.00,,,0.00,Wunderground v.1.13,2013-11-19 05:50:00,
2013-11-19 00:55:00,37.1,29.2,30.18,West,267,1.0,7.0,73,0.00,,,0.00,Wunderground v.1.13,2013-11-19 05:55:00,
2013-11-19 01:00:00,37.1,29.2,30.18,WNW,292,2.0,9.0,73,0.00,,,0.00,Wunderground v.1.13,2013-11-19 06:00:00,
2013-11-19 01:10:00,37.3,29.4,30.18,NW,311,3.0,4.0,73,0.00,,,0.00,Wunderground v.1.13,2013-11-19 06:10:00,
2013-11-19 01:20:00,37.1,28.9,30.18,NNW,327,2.0,3.0,72,0.00,,,0.00,Wunderground v.1.13,2013-11-19 06:20:00,
2013-11-19 01:30:00,37.1,29.2,30.18,NW,319,2.0,3.0,73,0.00,,,0.00,Wunderground v.1.13,2013-11-19 06:30:00,
2013-11-19 01:35:00,37.0,28.8,30.18,NW,315,2.0,6.0,72,0.00,,,0.00,Wunderground v.1.13,2013-11-19 06:35:00,
2013-11-19 01:45:00,36.9,28.4,30.19,NW,325,3.0,3.0,71,0.00,,,0.00,Wunderground v.1.13,2013-11-19 06:45:00,
2013-11-19 01:55:00,36.6,27.0,30.19,NW,308,5.0,7.0,68,0.00,,,0.00,Wunderground v.1.13,2013-11-19 06:55:00,
2013-11-19 02:00:00,36.4,26.8,30.20,WNW,295,5.0,9.0,68,0.00,,,0.00,Wunderground v.1.13,2013-11-19 07:00:00,
2013-11-19 02:10:00,36.3,26.4,30.20,WNW,293,6.0,11.0,67,0.00,,,0.00,Wunderground v.1.13,2013-11-19 07:10:00,
2013-11-19 02:20:00,36.3,26.7,30.20,NW,313,6.0,6.0,68,0.00,,,0.00,Wunderground v.1.13,2013-11-19 07:20:00,
2013-11-19 02:25:00,36.2,26.6,30.20,NW,311,4.0,4.0,68,0.00,,,0.00,Wunderground v.1.13,2013-11-19 07:25:00,
2013-11-19 02:35:00,36.1,26.6,30.20,NW,304,4.0,4.0,68,0.00,,,0.00,Wunderground v.1.13,2013-11-19 07:35:00,
2013-11-19 02:45:00,36.1,26.6,30.21,NW,322,3.0,6.0,68,0.00,,,0.00,Wunderground v.1.13,2013-11-19 07:45:00,
2013-11-19 02:55:00,36.1,27.3,30.21,WNW,296,3.0,3.0,70,0.00,,,0.00,Wunderground v.1.13,2013-11-19 07:55:00,
2013-11-19 03:05:00,36.0,27.2,30.21,NW,325,3.0,3.0,70,0.00,,,0.00,Wunderground v.1.13,2013-11-19 08:05:00,
2013-11-19 03:15:00,35.9,27.1,30.21,NW,313,4.0,6.0,70,0.00,,,0.00,Wunderground v.1.13,2013-11-19 08:15:00,
2013-11-19 03:20:00,35.9,26.4,30.22,WNW,300,5.0,5.0,68,0.00,,,0.00,Wunderground v.1.13,2013-11-19 08:20:00,
2013-11-19 03:30:00,35.9,26.7,30.22,WNW,300,3.0,3.0,69,0.00,,,0.00,Wunderground v.1.13,2013-11-19 08:30:00,
2013-11-19 03:40:00,35.9,26.4,30.22,WNW,303,4.0,6.0,68,0.00,,,0.00,Wunderground v.1.13,2013-11-19 08:40:00,
2013-11-19 03:45:00,35.9,26.4,30.22,WNW,300,5.0,5.0,68,0.00,,,0.00,Wunderground v.1.13,2013-11-19 08:45:00,
2013-11-19 03:55:00,35.9,26.7,30.22,WNW,302,3.0,4.0,69,0.00,,,0.00,Wunderground v.1.13,2013-11-19 08:55:00,
2013-11-19 04:05:00,35.8,26.6,30.22,WNW,288,3.0,3.0,69,0.00,,,0.00,Wunderground v.1.13,2013-11-19 09:05:00,
2013-11-19 04:15:00,35.7,26.9,30.23,NW,324,3.0,3.0,70,0.00,,,0.00,Wunderground v.1.13,2013-11-19 09:15:00,
2013-11-19 04:25:00,35.7,27.2,30.23,NW,324,2.0,2.0,71,0.00,,,0.00,Wunderground v.1.13,2013-11-19 09:25:00,
2013-11-19 04:30:00,35.7,27.6,30.23,NW,324,2.0,3.0,72,0.00,,,0.00,Wunderground v.1.13,2013-11-19 09:30:00,
2013-11-19 04:40:00,35.7,27.6,30.23,NW,321,2.0,5.0,72,0.00,,,0.00,Wunderground v.1.13,2013-11-19 09:40:00,
2013-11-19 04:50:00,35.5,27.0,30.24,NW,322,4.0,4.0,71,0.00,,,0.00,Wunderground v.1.13,2013-11-19 09:50:00,
2013-11-19 05:00:00,35.4,26.9,30.24,NW,322,3.0,3.0,71,0.00,,,0.00,Wunderground v.1.13,2013-11-19 10:00:00,
2013-11-19 05:05:00,35.3,27.2,30.25,NW,322,2.0,2.0,72,0.00,,,0.00,Wunderground v.1.13,2013-11-19 10:05:00,
2013-11-19 05:10:00,35.3,27.2,30.25,NW,322,2.0,2.0,72,0.00,,,0.00,Wunderground v.1.13,2013-11-19 10:10:00,
2013-11-19 05:20:00,35.2,27.1,30.25,NW,321,1.0,1.0,72,0.00,,,0.00,Wunderground v.1.13,2013-11-19 10:20:00,
2013-11-19 05:30:00,35.1,27.0,30.25,NW,322,1.0,1.0,72,0.00,,,0.00,Wunderground v.1.13,2013-11-19 10:30:00,
2013-11-19 05:35:00,35.1,26.6,30.26,NW,322,1.0,1.0,71,0.00,,,0.00,Wunderground v.1.13,2013-11-19 10:35:00,
2013-11-19 05:45:00,35.1,27.0,30.26,NW,326,1.0,5.0,72,0.00,,,0.00,Wunderground v.1.13,2013-11-19 10:45:00,
2013-11-19 05:50:00,35.1,26.6,30.26,NW,326,2.0,2.0,71,0.00,,,0.00,Wunderground v.1.13,2013-11-19 10:50:00,
2013-11-19 06:00:00,35.1,27.0,30.26,NW,323,1.0,3.0,72,0.00,,,0.00,Wunderground v.1.13,2013-11-19 11:00:00,
2013-11-19 06:05:00,35.1,27.0,30.27,NW,323,1.0,1.0,72,0.00,,,0.00,Wunderground v.1.13,2013-11-19 11:05:00,
2013-11-19 06:15:00,35.1,27.3,30.27,NW,323,1.0,1.0,73,0.00,,,0.00,Wunderground v.1.13,2013-11-19 11:15:00,
2013-11-19 06:25:00,35.0,27.2,30.28,NW,323,1.0,1.0,73,0.00,,,0.00,Wunderground v.1.13,2013-11-19 11:25:00,
2013-11-19 06:35:00,35.0,27.2,30.29,NW,324,0.0,0.0,73,0.00,,,0.00,Wunderground v.1.13,2013-11-19 11:35:00,
2013-11-19 06:45:00,35.0,27.2,30.29,NW,323,1.0,1.0,73,0.00,,,0.00,Wunderground v.1.13,2013-11-19 11:45:00,
2013-11-19 06:55:00,34.9,26.8,30.29,NW,326,2.0,2.0,72,0.00,,,0.00,Wunderground v.1.13,2013-11-19 11:55:00,
2013-11-19 07:00:00,34.9,27.1,30.30,NW,326,2.0,2.0,73,0.00,,,0.00,Wunderground v.1.13,2013-11-19 12:00:00,
2013-11-19 07:05:00,34.9,27.1,30.30,NW,326,1.0,1.0,73,0.00,,,0.00,Wunderground v.1.13,2013-11-19 12:05:00,
2013-11-19 07:15:00,34.8,26.7,30.30,NNW,329,1.0,1.0,72,0.00,,,0.00,Wunderground v.1.13,2013-11-19 12:15:00,
2013-11-19 07:25:00,34.8,26.7,30.30,NNW,330,0.0,1.0,72,0.00,,,0.00,Wunderground v.1.13,2013-11-19 12:25:00,
2013-11-19 07:35:00,34.8,26.7,30.31,NNW,340,1.0,1.0,72,0.00,,,0.00,Wunderground v.1.13,2013-11-19 12:35:00,
2013-11-19 07:45:00,34.8,26.4,30.31,NNW,340,1.0,2.0,71,0.00,,,0.00,Wunderground v.1.13,2013-11-19 12:45:00,
2013-11-19 07:55:00,34.8,26.4,30.32,NW,317,2.0,2.0,71,0.00,,,0.00,Wunderground v.1.13,2013-11-19 12:55:00,
2013-11-19 08:05:00,34.8,26.4,30.32,NW,321,1.0,1.0,71,0.00,,,0.00,Wunderground v.1.13,2013-11-19 13:05:00,
2013-11-19 08:10:00,34.9,26.4,30.32,NW,321,1.0,1.0,71,0.00,,,0.00,Wunderground v.1.13,2013-11-19 13:10:00,
2013-11-19 08:15:00,34.9,26.4,30.32,NW,321,2.0,2.0,71,0.00,,,0.00,Wunderground v.1.13,2013-11-19 13:15:00,
2013-11-19 08:20:00,35.0,26.5,30.32,NW,321,2.0,4.0,71,0.00,,,0.00,Wunderground v.1.13,2013-11-19 13:20:00,
2013-11-19 08:25:00,35.0,26.5,30.32,NW,324,2.0,4.0,71,0.00,,,0.00,Wunderground v.1.13,2013-11-19 13:25:00,
2013-11-19 08:35:00,35.2,26.7,30.32,NNW,333,1.0,1.0,71,0.00,,,0.00,Wunderground v.1.13,2013-11-19 13:35:00,
2013-11-19 08:40:00,35.2,26.7,30.32,NNW,327,2.0,2.0,71,0.00,,,0.00,Wunderground v.1.13,2013-11-19 13:40:00,
2013-11-19 08:45:00,35.3,26.8,30.32,NNW,327,1.0,1.0,71,0.00,,,0.00,Wunderground v.1.13,2013-11-19 13:45:00,
2013-11-19 08:55:00,35.5,26.7,30.32,NNW,327,2.0,2.0,70,0.00,,,0.00,Wunderground v.1.13,2013-11-19 13:55:00,
2013-11-19 09:05:00,35.8,27.0,30.33,NNW,340,1.0,2.0,70,0.00,,,0.00,Wunderground v.1.13,2013-11-19 14:05:00,
2013-11-19 09:10:00,35.9,27.1,30.33,NNW,341,1.0,1.0,70,0.00,,,0.00,Wunderground v.1.13,2013-11-19 14:10:00,
2013-11-19 09:15:00,36.1,27.3,30.34,North,355,1.0,1.0,70,0.00,,,0.00,Wunderground v.1.13,2013-11-19 14:15:00,
2013-11-19 09:20:00,36.2,27.0,30.34,NNW,342,1.0,4.0,69,0.00,,,0.00,Wunderground v.1.13,2013-11-19 14:20:00,
2013-11-19 09:30:00,36.2,26.3,30.34,North,350,3.0,3.0,67,0.00,,,0.00,Wunderground v.1.13,2013-11-19 14:30:00,
2013-11-19 09:35:00,36.2,27.0,30.34,North,360,2.0,3.0,69,0.00,,,0.00,Wunderground v.1.13,2013-11-19 14:35:00,
2013-11-19 09:45:00,36.3,26.7,30.35,NW,321,2.0,2.0,68,0.00,,,0.00,Wunderground v.1.13,2013-11-19 14:45:00,
2013-11-19 09:55:00,36.6,27.0,30.36,NW,323,1.0,3.0,68,0.00,,,0.00,Wunderground v.1.13,2013-11-19 14:55:00,
2013-11-19 10:05:00,36.7,26.4,30.36,NW,314,2.0,2.0,66,0.00,,,0.00,Wunderground v.1.13,2013-11-19 15:05:00,
2013-11-19 10:15:00,36.8,26.5,30.37,NNE,14,1.0,1.0,66,0.00,,,0.00,Wunderground v.1.13,2013-11-19 15:15:00,
2013-11-19 10:25:00,37.2,26.9,30.37,NW,308,1.0,6.0,66,0.00,,,0.00,Wunderground v.1.13,2013-11-19 15:25:00,
2013-11-19 10:35:00,37.3,27.0,30.37,North,5,2.0,2.0,66,0.00,,,0.00,Wunderground v.1.13,2013-11-19 15:35:00,
2013-11-19 10:45:00,37.9,27.2,30.37,North,355,1.0,1.0,65,0.00,,,0.00,Wunderground v.1.13,2013-11-19 15:45:00,
2013-11-19 10:55:00,38.2,27.1,30.38,NNW,327,1.0,1.0,64,0.00,,,0.00,Wunderground v.1.13,2013-11-19 15:55:00,
2013-11-19 11:00:00,38.4,27.3,30.38,NNW,328,1.0,1.0,64,0.00,,,0.00,Wunderground v.1.13,2013-11-19 16:00:00,
2013-11-19 11:05:00,38.5,26.6,30.38,NW,311,1.0,3.0,62,0.00,,,0.00,Wunderground v.1.13,2013-11-19 16:05:00,
2013-11-19 11:10:00,38.2,26.7,30.38,NW,317,3.0,4.0,63,0.00,,,0.00,Wunderground v.1.13,2013-11-19 16:10:00,
2013-11-19 11:20:00,37.9,26.0,30.37,NW,312,3.0,3.0,62,0.00,,,0.00,Wunderground v.1.13,2013-11-19 16:20:00,
2013-11-19 11:25:00,37.8,26.3,30.37,NW,315,3.0,3.0,63,0.00,,,0.00,Wunderground v.1.13,2013-11-19 16:25:00,
2013-11-19 11:35:00,38.3,26.8,30.37,NW,325,1.0,5.0,63,0.00,,,0.00,Wunderground v.1.13,2013-11-19 16:35:00,
2013-11-19 11:40:00,38.2,26.7,30.37,NW,316,3.0,3.0,63,0.00,,,0.00,Wunderground v.1.13,2013-11-19 16:40:00,
2013-11-19 11:50:00,38.2,26.3,30.36,WNW,294,2.0,2.0,62,0.00,,,0.00,Wunderground v.1.13,2013-11-19 16:50:00,
2013-11-19 11:55:00,38.3,26.8,30.36,North,355,0.0,0.0,63,0.00,,,0.00,Wunderground v.1.13,2013-11-19 16:55:00,
2013-11-19 12:05:00,38.3,25.6,30.36,WNW,288,2.0,3.0,60,0.00,,,0.00,Wunderground v.1.13,2013-11-19 17:05:00,
2013-11-19 12:15:00,38.8,27.3,30.35,NNW,347,2.0,2.0,63,0.00,,,0.00,Wunderground v.1.13,2013-11-19 17:15:00,
2013-11-19 12:25:00,39.8,26.6,30.35,NNE,29,1.0,1.0,59,0.00,,,0.00,Wunderground v.1.13,2013-11-19 17:25:00,
2013-11-19 12:35:00,40.3,27.9,30.35,North,11,1.0,1.0,61,0.00,,,0.00,Wunderground v.1.13,2013-11-19 17:35:00,
2013-11-19 12:40:00,41.0,28.6,30.34,North,355,1.0,1.0,61,0.00,,,0.00,Wunderground v.1.13,2013-11-19 17:40:00,
2013-11-19 12:50:00,42.1,27.9,30.34,North,360,1.0,1.0,57,0.00,,,0.00,Wunderground v.1.13,2013-11-19 17:50:00,
2013-11-19 13:00:00,41.5,27.0,30.34,ENE,75,1.0,1.0,56,0.00,,,0.00,Wunderground v.1.13,2013-11-19 18:00:00,
2013-11-19 13:05:00,41.2,26.7,30.34,NW,325,2.0,2.0,56,0.00,,,0.00,Wunderground v.1.13,2013-11-19 18:05:00,
2013-11-19 13:15:00,41.4,27.3,30.34,North,351,1.0,1.0,57,0.00,,,0.00,Wunderground v.1.13,2013-11-19 18:15:00,
2013-11-19 13:20:00,42.0,28.3,30.34,North,11,1.0,3.0,58,0.00,,,0.00,Wunderground v.1.13,2013-11-19 18:20:00,
2013-11-19 13:25:00,42.4,27.4,30.34,North,349,1.0,1.0,55,0.00,,,0.00,Wunderground v.1.13,2013-11-19 18:25:00,
2013-11-19 13:30:00,42.4,27.8,30.34,North,349,1.0,1.0,56,0.00,,,0.00,Wunderground v.1.13,2013-11-19 18:30:00,
2013-11-19 13:40:00,41.5,28.2,30.34,NNE,13,3.0,3.0,59,0.00,,,0.00,Wunderground v.1.13,2013-11-19 18:40:00,
2013-11-19 13:50:00,42.0,27.0,30.34,North,360,1.0,3.0,55,0.00,,,0.00,Wunderground v.1.13,2013-11-19 18:50:00,
2013-11-19 13:55:00,41.9,28.2,30.34,North,5,1.0,1.0,58,0.00,,,0.00,Wunderground v.1.13,2013-11-19 18:55:00,
2013-11-19 14:05:00,42.0,27.4,30.34,NE,34,1.0,1.0,56,0.00,,,0.00,Wunderground v.1.13,2013-11-19 19:05:00,
2013-11-19 14:15:00,41.7,27.6,30.34,NNE,14,2.0,2.0,57,0.00,,,0.00,Wunderground v.1.13,2013-11-19 19:15:00,
2013-11-19 14:25:00,42.7,28.1,30.34,NE,36,1.0,4.0,56,0.00,,,0.00,Wunderground v.1.13,2013-11-19 19:25:00,
2013-11-19 14:35:00,42.7,27.2,30.34,North,351,1.0,2.0,54,0.00,,,0.00,Wunderground v.1.13,2013-11-19 19:35:00,
2013-11-19 14:40:00,42.6,26.2,30.34,North,350,1.0,1.0,52,0.00,,,0.00,Wunderground v.1.13,2013-11-19 19:40:00,
2013-11-19 14:50:00,43.1,27.6,30.34,NNW,335,1.0,3.0,54,0.00,,,0.00,Wunderground v.1.13,2013-11-19 19:50:00,
2013-11-19 14:55:00,43.2,27.2,30.33,NNE,22,1.0,3.0,53,0.00,,,0.00,Wunderground v.1.13,2013-11-19 19:55:00,
2013-11-19 15:05:00,42.3,27.7,30.33,NE,41,2.0,2.0,56,0.00,,,0.00,Wunderground v.1.13,2013-11-19 20:05:00,
2013-11-19 15:15:00,42.2,27.2,30.34,NNE,30,2.0,2.0,55,0.00,,,0.00,Wunderground v.1.13,2013-11-19 20:15:00,
2013-11-19 15:25:00,42.2,28.0,30.34,NNE,30,0.0,0.0,57,0.00,,,0.00,Wunderground v.1.13,2013-11-19 20:25:00,
2013-11-19 15:35:00,42.4,27.4,30.34,NNE,27,0.0,0.0,55,0.00,,,0.00,Wunderground v.1.13,2013-11-19 20:35:00,
2013-11-19 15:45:00,42.5,27.0,30.35,NNE,16,0.0,0.0,54,0.00,,,0.00,Wunderground v.1.13,2013-11-19 20:45:00,
2013-11-19 15:50:00,42.4,26.9,30.35,NNE,16,0.0,0.0,54,0.00,,,0.00,Wunderground v.1.13,2013-11-19 20:50:00,
2013-11-19 16:00:00,42.1,27.1,30.35,NNE,16,0.0,0.0,55,0.00,,,0.00,Wunderground v.1.13,2013-11-19 21:00:00,
2013-11-19 16:10:00,41.8,27.2,30.35,NNE,16,0.0,0.0,56,0.00,,,0.00,Wunderground v.1.13,2013-11-19 21:10:00,
2013-11-19 16:15:00,41.6,27.1,30.35,NNE,16,0.0,1.0,56,0.00,,,0.00,Wunderground v.1.13,2013-11-19 21:15:00,
2013-11-19 16:25:00,41.3,27.2,30.36,NNE,17,0.0,0.0,57,0.00,,,0.00,Wunderground v.1.13,2013-11-19 21:25:00,
2013-11-19 16:30:00,41.2,27.5,30.36,NNE,17,0.0,2.0,58,0.00,,,0.00,Wunderground v.1.13,2013-11-19 21:30:00,
2013-11-19 16:35:00,41.0,26.9,30.36,NNE,17,0.0,3.0,57,0.00,,,0.00,Wunderground v.1.13,2013-11-19 21:35:00,
2013-11-19 16:45:00,40.4,26.4,30.36,NE,51,0.0,0.0,57,0.00,,,0.00,Wunderground v.1.13,2013-11-19 21:45:00,
2013-11-19 16:50:00,40.1,26.5,30.36,NE,51,0.0,2.0,58,0.00,,,0.00,Wunderground v.1.13,2013-11-19 21:50:00,
2013-11-19 16:55:00,39.8,26.2,30.36,ENE,76,1.0,1.0,58,0.00,,,0.00,Wunderground v.1.13,2013-11-19 21:55:00,
2013-11-19 17:05:00,39.5,26.3,30.37,ENE,76,0.0,0.0,59,0.00,,,0.00,Wunderground v.1.13,2013-11-19 22:05:00,
2013-11-19 17:10:00,39.3,26.2,30.37,ENE,76,0.0,2.0,59,0.00,,,0.00,Wunderground v.1.13,2013-11-19 22:10:00,
2013-11-19 17:20:00,39.0,26.3,30.37,ENE,76,0.0,2.0,60,0.00,,,0.00,Wunderground v.1.13,2013-11-19 22:20:00,
2013-11-19 17:25:00,38.8,26.5,30.37,ENE,76,0.0,0.0,61,0.00,,,0.00,Wunderground v.1.13,2013-11-19 22:25:00,
2013-11-19 17:35:00,38.5,26.2,30.38,ENE,76,0.0,0.0,61,0.00,,,0.00,Wunderground v.1.13,2013-11-19 22:35:00,
2013-11-19 17:40:00,38.3,26.0,30.38,ENE,76,0.0,0.0,61,0.00,,,0.00,Wunderground v.1.13,2013-11-19 22:40:00,
2013-11-19 17:50:00,38.0,26.1,30.38,ENE,76,0.0,0.0,62,0.00,,,0.00,Wunderground v.1.13,2013-11-19 22:50:00,
2013-11-19 17:55:00,37.9,26.4,30.38,ENE,76,0.0,0.0,63,0.00,,,0.00,Wunderground v.1.13,2013-11-19 22:55:00,
2013-11-19 18:05:00,37.8,26.7,30.39,ENE,76,0.0,0.0,64,0.00,,,0.00,Wunderground v.1.13,2013-11-19 23:05:00,
2013-11-19 18:10:00,37.7,26.6,30.39,ENE,76,0.0,0.0,64,0.00,,,0.00,Wunderground v.1.13,2013-11-19 23:10:00,
2013-11-19 18:20:00,37.5,26.0,30.39,ENE,76,0.0,0.0,63,0.00,,,0.00,Wunderground v.1.13,2013-11-19 23:20:00,
2013-11-19 18:25:00,37.4,26.3,30.39,ENE,76,0.0,0.0,64,0.00,,,0.00,Wunderground v.1.13,2013-11-19 23:25:00,
2013-11-19 18:35:00,36.8,26.9,30.39,ENE,76,0.0,0.0,67,0.00,,,0.00,Wunderground v.1.13,2013-11-19 23:35:00,
2013-11-19 18:45:00,36.3,27.1,30.40,ENE,76,0.0,0.0,69,0.00,,,0.00,Wunderground v.1.13,2013-11-19 23:45:00,
2013-11-19 18:55:00,35.7,27.2,30.40,ENE,76,0.0,0.0,71,0.00,,,0.00,Wunderground v.1.13,2013-11-19 23:55:00,
2013-11-19 19:05:00,35.2,27.4,30.40,ENE,76,0.0,0.0,73,0.00,,,0.00,Wunderground v.1.13,2013-11-20 00:05:00,
2013-11-19 19:15:00,34.7,27.3,30.40,ENE,76,0.0,0.0,74,0.00,,,0.00,Wunderground v.1.13,2013-11-20 00:15:00,
2013-11-19 19:20:00,34.3,26.9,30.40,ENE,76,0.0,0.0,74,0.00,,,0.00,Wunderground v.1.13,2013-11-20 00:20:00,
2013-11-19 19:30:00,33.9,26.8,30.40,ENE,76,0.0,0.0,75,0.00,,,0.00,Wunderground v.1.13,2013-11-20 00:30:00,
2013-11-19 19:35:00,33.7,26.6,30.40,ENE,76,0.0,0.0,75,0.00,,,0.00,Wunderground v.1.13,2013-11-20 00:35:00,
2013-11-19 19:45:00,33.4,27.0,30.41,ENE,76,0.0,0.0,77,0.00,,,0.00,Wunderground v.1.13,2013-11-20 00:45:00,
2013-11-19 19:50:00,33.2,26.8,30.41,ENE,76,0.0,0.0,77,0.00,,,0.00,Wunderground v.1.13,2013-11-20 00:50:00,
2013-11-19 20:00:00,32.8,26.7,30.41,ENE,76,0.0,0.0,78,0.00,,,0.00,Wunderground v.1.13,2013-11-20 01:00:00,
2013-11-19 20:10:00,32.3,26.5,30.41,ENE,76,0.0,0.0,79,0.00,,,0.00,Wunderground v.1.13,2013-11-20 01:10:00,
2013-11-19 20:20:00,31.9,26.4,30.41,ENE,76,0.0,0.0,80,0.00,,,0.00,Wunderground v.1.13,2013-11-20 01:20:00,
2013-11-19 20:30:00,31.7,26.5,30.41,ENE,76,0.0,0.0,81,0.00,,,0.00,Wunderground v.1.13,2013-11-20 01:30:00,
2013-11-19 20:40:00,31.5,26.3,30.41,ENE,76,0.0,0.0,81,0.00,,,0.00,Wunderground v.1.13,2013-11-20 01:40:00,
2013-11-19 20:50:00,31.4,26.5,30.41,ENE,76,0.0,0.0,82,0.00,,,0.00,Wunderground v.1.13,2013-11-20 01:50:00,
2013-11-19 21:00:00,31.2,26.3,30.41,ENE,76,0.0,0.0,82,0.00,,,0.00,Wunderground v.1.13,2013-11-20 02:00:00,
2013-11-19 21:10:00,30.7,26.4,30.41,ENE,76,0.0,0.0,84,0.00,,,0.00,Wunderground v.1.13,2013-11-20 02:10:00,
2013-11-19 21:20:00,30.5,26.5,30.41,ENE,76,0.0,0.0,85,0.00,,,0.00,Wunderground v.1.13,2013-11-20 02:20:00,
2013-11-19 21:30:00,30.3,26.3,30.42,ENE,76,0.0,0.0,85,0.00,,,0.00,Wunderground v.1.13,2013-11-20 02:30:00,
2013-11-19 21:35:00,30.2,26.5,30.42,ENE,76,0.0,0.0,86,0.00,,,0.00,Wunderground v.1.13,2013-11-20 02:35:00,
2013-11-19 21:45:00,30.0,26.3,30.42,ENE,76,0.0,0.0,86,0.00,,,0.00,Wunderground v.1.13,2013-11-20 02:45:00,
2013-11-19 21:55:00,29.8,26.1,30.42,ENE,76,0.0,0.0,86,0.00,,,0.00,Wunderground v.1.13,2013-11-20 02:55:00,
2013-11-19 22:05:00,29.8,26.1,30.42,ENE,76,0.0,0.0,86,0.00,,,0.00,Wunderground v.1.13,2013-11-20 03:05:00,
2013-11-19 22:15:00,29.7,26.0,30.43,ENE,76,0.0,0.0,86,0.00,,,0.00,Wunderground v.1.13,2013-11-20 03:15:00,
2013-11-19 22:25:00,29.6,25.9,30.43,ENE,76,0.0,0.0,86,0.00,,,0.00,Wunderground v.1.13,2013-11-20 03:25:00,
2013-11-19 22:35:00,29.6,25.9,30.43,ENE,76,0.0,0.0,86,0.00,,,0.00,Wunderground v.1.13,2013-11-20 03:35:00,
2013-11-19 22:40:00,29.6,26.2,30.42,ENE,76,0.0,0.0,87,0.00,,,0.00,Wunderground v.1.13,2013-11-20 03:40:00,
2013-11-19 22:50:00,29.5,26.1,30.42,ENE,76,0.0,0.0,87,0.00,,,0.00,Wunderground v.1.13,2013-11-20 03:50:00,
2013-11-19 22:55:00,29.4,26.0,30.42,ENE,76,0.0,0.0,87,0.00,,,0.00,Wunderground v.1.13,2013-11-20 03:55:00,
2013-11-19 23:05:00,29.3,25.6,30.42,ENE,76,0.0,0.0,86,0.00,,,0.00,Wunderground v.1.13,2013-11-20 04:05:00,
2013-11-19 23:15:00,29.3,25.6,30.42,ENE,76,0.0,0.0,86,0.00,,,0.00,Wunderground v.1.13,2013-11-20 04:15:00,
2013-11-19 23:25:00,29.3,25.6,30.42,ENE,76,0.0,0.0,86,0.00,,,0.00,Wunderground v.1.13,2013-11-20 04:25:00,
2013-11-19 23:35:00,29.2,25.5,30.42,ENE,76,0.0,0.0,86,0.00,,,0.00,Wunderground v.1.13,2013-11-20 04:35:00,
2013-11-19 23:45:00,29.1,25.4,30.42,ENE,76,0.0,0.0,86,0.00,,,0.00,Wunderground v.1.13,2013-11-20 04:45:00,
2013-11-19 23:55:00,28.9,25.2,30.43,ENE,76,0.0,0.0,86,0.00,,,0.00,Wunderground v.1.13,2013-11-20 04:55:00,